createdAt,value
2023-03-07T00:00:03.884Z,13.00
2023-03-07T00:03:06.843Z,12.70
2023-03-07T00:06:11.435Z,11.90
2023-03-07T00:09:13.084Z,13.15
2023-03-07T00:12:14.734Z,12.65
2023-03-07T00:15:16.544Z,12.50
2023-03-07T00:18:18.018Z,10.75
2023-03-07T00:21:21.237Z,10.65
2023-03-07T00:24:22.735Z,11.10
2023-03-07T00:27:24.246Z,11.98
2023-03-07T00:30:25.669Z,10.73
2023-03-07T00:33:27.773Z,11.27
2023-03-07T00:36:29.455Z,10.13
2023-03-07T00:39:30.942Z,10.75
2023-03-07T00:42:32.824Z,10.15
2023-03-07T00:45:34.309Z,9.50
2023-03-07T00:48:38.546Z,9.73
2023-03-07T00:51:40.307Z,9.35
2023-03-07T00:54:42.485Z,10.43
2023-03-07T00:57:44.111Z,10.82
2023-03-07T01:00:45.597Z,10.23
2023-03-07T01:03:53.349Z,10.52
2023-03-07T01:06:54.967Z,10.48
2023-03-07T01:09:56.444Z,10.45
2023-03-07T01:12:57.953Z,10.18
2023-03-07T01:16:17.831Z,10.75
2023-03-07T01:19:19.432Z,11.27
2023-03-07T01:22:21.211Z,11.90
2023-03-07T01:25:22.737Z,10.90
2023-03-07T01:28:24.348Z,11.75
2023-03-07T01:31:26.455Z,12.43
2023-03-07T01:34:27.965Z,11.65
2023-03-07T01:37:29.464Z,12.43
2023-03-07T01:40:31.666Z,10.82
2023-03-07T01:43:34.449Z,11.73
2023-03-07T01:46:57.984Z,12.23
2023-03-07T01:50:09.844Z,11.25
2023-03-07T01:53:11.651Z,11.35
2023-03-07T01:56:14.358Z,11.25
2023-03-07T01:59:27.887Z,11.27
2023-03-07T02:02:29.602Z,10.63
2023-03-07T02:05:38.140Z,10.93
2023-03-07T02:08:42.093Z,11.13
2023-03-07T02:11:45.151Z,11.38
2023-03-07T02:14:49.278Z,11.32
2023-03-07T02:17:51.547Z,10.80
2023-03-07T02:21:17.684Z,10.73
2023-03-07T02:24:33.618Z,9.25
2023-03-07T02:27:37.384Z,10.30
2023-03-07T02:30:53.301Z,10.05
2023-03-07T02:33:55.714Z,10.15
2023-03-07T02:37:11.178Z,9.88
2023-03-07T02:40:16.562Z,10.05
2023-03-07T02:43:18.454Z,11.10
2023-03-07T02:46:20.411Z,10.63
2023-03-07T02:49:22.245Z,10.00
2023-03-07T02:52:24.662Z,11.35
2023-03-07T02:55:26.327Z,10.73
2023-03-07T02:58:34.018Z,11.43
2023-03-07T03:01:36.275Z,11.05
2023-03-07T03:04:38.042Z,11.00
2023-03-07T03:07:39.560Z,12.38
2023-03-07T03:10:41.052Z,11.80
2023-03-07T03:13:42.942Z,10.40
2023-03-07T03:16:44.469Z,11.68
2023-03-07T03:19:45.929Z,11.18
2023-03-07T03:22:47.462Z,11.05
2023-03-07T03:26:07.604Z,11.20
2023-03-07T03:29:09.842Z,11.98
2023-03-07T03:32:11.515Z,11.63
2023-03-07T03:35:14.662Z,11.05
2023-03-07T03:38:16.987Z,11.18
2023-03-07T03:41:18.563Z,11.10
2023-03-07T03:44:22.686Z,10.65
2023-03-07T03:47:24.470Z,10.10
2023-03-07T03:50:26.064Z,10.45
2023-03-07T03:53:27.603Z,11.73
2023-03-07T03:56:29.746Z,11.15
2023-03-07T03:59:31.290Z,11.38
2023-03-07T04:02:34.051Z,10.88
2023-03-07T04:05:35.835Z,10.75
2023-03-07T04:08:38.561Z,10.85
2023-03-07T04:11:40.064Z,9.93
2023-03-07T04:14:41.881Z,10.15
2023-03-07T04:17:43.408Z,10.10
2023-03-07T04:20:45.788Z,10.32
2023-03-07T04:23:49.566Z,10.40
2023-03-07T04:29:53.004Z,10.48
2023-03-07T04:32:56.497Z,10.73
2023-03-07T04:35:58.234Z,11.15
2023-03-07T04:38:59.873Z,10.20
2023-03-07T04:42:01.714Z,11.52
2023-03-07T04:45:09.427Z,10.13
2023-03-07T04:48:10.960Z,10.98
2023-03-07T04:51:13.161Z,9.98
2023-03-07T04:54:15.130Z,9.43
2023-03-07T04:57:17.252Z,9.77
2023-03-07T05:00:20.019Z,10.70
2023-03-07T05:03:24.358Z,10.32
2023-03-07T05:06:25.941Z,10.30
2023-03-07T05:09:27.626Z,10.60
2023-03-07T05:12:29.401Z,9.05
2023-03-07T05:15:31.867Z,11.18
2023-03-07T05:18:33.529Z,11.40
2023-03-07T05:21:35.647Z,11.55
2023-03-07T05:24:37.213Z,12.15
2023-03-07T05:27:39.429Z,11.93
2023-03-07T05:30:40.934Z,11.57
2023-03-07T05:33:42.668Z,11.50
2023-03-07T05:36:44.672Z,11.38
2023-03-07T05:39:46.565Z,11.90
2023-03-07T05:42:48.168Z,11.65
2023-03-07T05:45:50.331Z,12.15
2023-03-07T05:48:51.955Z,12.05
2023-03-07T05:51:53.554Z,11.45
2023-03-07T05:54:56.453Z,13.60
2023-03-07T05:57:58.020Z,13.05
2023-03-07T06:01:02.948Z,12.45
2023-03-07T06:04:05.229Z,13.43
2023-03-07T06:07:06.838Z,12.38
2023-03-07T06:10:09.347Z,12.25
2023-03-07T06:13:17.750Z,12.50
2023-03-07T06:16:19.317Z,11.57
2023-03-07T06:19:20.949Z,11.80
2023-03-07T06:22:24.020Z,12.23
2023-03-07T06:25:25.629Z,12.00
2023-03-07T06:28:27.730Z,11.27
2023-03-07T06:31:29.380Z,12.18
2023-03-07T06:34:31.383Z,12.02
2023-03-07T06:37:33.230Z,12.45
2023-03-07T06:40:36.371Z,11.05
2023-03-07T06:43:38.045Z,11.00
2023-03-07T06:46:39.629Z,11.32
2023-03-07T06:49:46.921Z,11.07
2023-03-07T06:52:51.571Z,10.77
2023-03-07T06:55:53.478Z,10.27
2023-03-07T06:58:55.487Z,10.48
2023-03-07T07:02:03.169Z,11.13
2023-03-07T07:05:06.074Z,11.38
2023-03-07T07:08:07.646Z,10.80
2023-03-07T07:11:09.375Z,10.40
2023-03-07T07:14:11.788Z,9.52
2023-03-07T07:17:15.027Z,10.18
2023-03-07T07:20:17.440Z,9.65
2023-03-07T07:23:20.600Z,10.63
2023-03-07T07:26:24.378Z,10.30
2023-03-07T07:29:26.265Z,9.07
2023-03-07T07:32:28.042Z,10.32
2023-03-07T07:35:29.742Z,8.90
2023-03-07T07:38:31.386Z,9.38
2023-03-07T07:41:34.031Z,9.63
2023-03-07T07:44:35.960Z,8.85
2023-03-07T07:47:43.588Z,9.55
2023-03-07T07:50:45.135Z,9.75
2023-03-07T07:53:46.786Z,9.60
2023-03-07T07:56:48.723Z,9.43
2023-03-07T07:59:50.422Z,9.65
2023-03-07T08:02:52.278Z,9.55
2023-03-07T08:05:53.743Z,9.98
2023-03-07T08:08:55.888Z,8.65
2023-03-07T08:11:57.313Z,9.55
2023-03-07T08:14:58.804Z,9.80
2023-03-07T08:18:00.318Z,8.93
2023-03-07T08:21:01.804Z,8.90
2023-03-07T08:24:04.062Z,10.00
2023-03-07T08:27:05.927Z,8.77
2023-03-07T08:30:07.998Z,8.40
2023-03-07T08:33:09.618Z,9.27
2023-03-07T08:36:11.143Z,9.02
2023-03-07T08:39:13.177Z,9.13
2023-03-07T08:42:14.688Z,8.80
2023-03-07T08:45:16.446Z,10.13
2023-03-07T08:48:17.922Z,9.35
2023-03-07T08:51:19.723Z,9.50
2023-03-07T08:54:21.207Z,10.45
2023-03-07T08:57:22.768Z,9.55
2023-03-07T09:00:25.133Z,9.75
2023-03-07T09:03:26.775Z,10.40
2023-03-07T09:06:28.921Z,12.18
2023-03-07T09:09:31.294Z,11.27
2023-03-07T09:12:34.252Z,11.35
2023-03-07T09:15:38.739Z,11.20
2023-03-07T09:18:40.240Z,11.07
2023-03-07T09:21:41.766Z,10.45
2023-03-07T09:24:43.307Z,10.95
2023-03-07T09:27:45.614Z,10.63
2023-03-07T09:30:47.111Z,10.75
2023-03-07T09:33:48.897Z,10.95
2023-03-07T09:36:51.579Z,10.13
2023-03-07T09:39:53.049Z,11.50
2023-03-07T09:43:16.313Z,11.27
2023-03-07T09:46:59.020Z,11.15
2023-03-07T09:50:08.391Z,11.55
2023-03-07T09:53:22.354Z,12.05
2023-03-07T09:56:40.615Z,11.25
2023-03-07T09:59:43.971Z,12.20
2023-03-07T10:02:51.231Z,11.90
2023-03-07T10:05:57.213Z,11.63
2023-03-07T10:09:00.562Z,11.10
2023-03-07T10:12:37.340Z,12.20
2023-03-07T10:16:04.287Z,11.43
2023-03-07T10:19:28.161Z,11.32
2023-03-07T10:22:53.009Z,11.23
2023-03-07T10:26:00.178Z,11.63
2023-03-07T10:29:15.108Z,13.55
2023-03-07T10:32:20.067Z,11.68
2023-03-07T10:35:24.430Z,11.57
2023-03-07T10:38:49.705Z,11.00
2023-03-07T10:41:51.520Z,11.27
2023-03-07T10:44:53.254Z,11.15
2023-03-07T10:47:54.718Z,11.25
2023-03-07T10:51:15.124Z,10.85
2023-03-07T10:54:33.606Z,12.45
2023-03-07T10:57:35.087Z,10.98
2023-03-07T11:00:36.599Z,10.88
2023-03-07T11:03:59.984Z,11.88
2023-03-07T11:07:01.462Z,10.40
2023-03-07T11:10:36.720Z,11.70
2023-03-07T11:13:38.186Z,10.40
2023-03-07T11:16:50.474Z,10.52
2023-03-07T11:19:53.979Z,10.52
2023-03-07T11:23:23.284Z,10.52
2023-03-07T11:26:24.745Z,11.60
2023-03-07T11:29:28.373Z,10.15
2023-03-07T11:32:29.926Z,11.02
2023-03-07T11:35:46.441Z,10.05
2023-03-07T11:39:06.732Z,11.73
2023-03-07T11:42:23.958Z,10.20
2023-03-07T11:45:32.156Z,10.27
2023-03-07T11:48:51.314Z,10.65
2023-03-07T11:52:16.053Z,11.13
2023-03-07T11:58:55.852Z,11.35
2023-03-07T12:01:59.848Z,11.25
2023-03-07T12:05:13.029Z,12.40
2023-03-07T12:08:37.728Z,10.65
2023-03-07T12:15:00.991Z,9.32
2023-03-07T12:18:34.065Z,9.60
2023-03-07T12:21:57.230Z,10.35
2023-03-07T12:25:19.517Z,10.32
2023-03-07T12:28:21.043Z,9.90
2023-03-07T12:31:34.533Z,10.23
2023-03-07T12:34:44.168Z,10.07
2023-03-07T12:37:55.731Z,9.80
2023-03-07T12:41:05.776Z,10.93
2023-03-07T12:44:16.541Z,11.32
2023-03-07T12:47:33.532Z,10.75
2023-03-07T12:50:41.377Z,11.88
2023-03-07T12:53:49.279Z,11.27
2023-03-07T12:57:06.717Z,9.95
2023-03-07T13:00:12.614Z,10.35
2023-03-07T13:03:22.777Z,10.60
2023-03-07T13:06:25.666Z,10.90
2023-03-07T13:09:28.143Z,11.30
2023-03-07T13:12:37.838Z,11.30
2023-03-07T13:16:01.837Z,11.27
2023-03-07T13:19:31.026Z,11.32
2023-03-07T13:22:32.419Z,10.80
2023-03-07T13:25:49.143Z,11.85
2023-03-07T13:28:51.562Z,11.05
2023-03-07T13:31:53.110Z,11.52
2023-03-07T13:34:54.730Z,11.65
2023-03-07T13:38:23.909Z,10.90
2023-03-07T13:41:46.915Z,11.32
2023-03-07T13:44:48.442Z,10.93
2023-03-07T13:47:49.948Z,9.98
2023-03-07T13:50:51.374Z,11.88
2023-03-07T13:53:56.208Z,11.02
2023-03-07T13:56:57.720Z,11.50
2023-03-07T14:00:00.716Z,10.75
2023-03-07T14:03:02.722Z,12.07
2023-03-07T14:06:13.420Z,11.43
2023-03-07T14:09:19.748Z,10.65
2023-03-07T14:13:01.018Z,11.80
2023-03-07T14:16:13.071Z,11.43
2023-03-07T14:19:37.137Z,11.90
2023-03-07T14:23:02.574Z,11.18
2023-03-07T14:26:37.042Z,12.63
2023-03-07T14:29:49.329Z,11.98
2023-03-07T14:32:51.991Z,11.57
2023-03-07T14:35:53.531Z,11.85
2023-03-07T14:38:58.106Z,11.35
2023-03-07T14:42:12.294Z,10.68
2023-03-07T14:45:36.392Z,10.63
2023-03-07T14:48:54.909Z,12.02
2023-03-07T14:51:58.076Z,12.05
2023-03-07T14:55:02.047Z,11.48
2023-03-07T14:58:04.315Z,11.68
2023-03-07T15:01:14.375Z,10.57
2023-03-07T15:04:27.894Z,10.75
2023-03-07T15:07:29.435Z,11.15
2023-03-07T15:10:30.817Z,11.70
2023-03-07T15:13:47.478Z,10.75
2023-03-07T15:16:57.436Z,11.25
2023-03-07T15:20:18.963Z,10.82
2023-03-07T15:23:24.116Z,10.98
2023-03-07T15:26:27.725Z,10.63
2023-03-07T15:29:31.335Z,10.13
2023-03-07T15:32:38.253Z,10.38
2023-03-07T15:35:40.109Z,10.93
2023-03-07T15:38:44.681Z,10.98
2023-03-07T15:42:06.280Z,11.35
2023-03-07T15:45:28.248Z,10.60
2023-03-07T15:48:48.721Z,11.52
2023-03-07T15:51:54.248Z,10.73
2023-03-07T15:54:57.889Z,9.65
2023-03-07T15:58:05.274Z,9.82
2023-03-07T16:01:18.164Z,9.93
2023-03-07T16:04:31.677Z,9.70
2023-03-07T16:07:33.246Z,9.03
2023-03-07T16:10:34.726Z,10.60
2023-03-07T16:13:42.348Z,9.75
2023-03-07T16:16:44.430Z,9.55
2023-03-07T16:19:46.072Z,9.80
2023-03-07T16:22:47.832Z,10.02
2023-03-07T16:25:49.506Z,10.13
2023-03-07T16:28:52.772Z,10.40
2023-03-07T16:31:54.272Z,9.45
2023-03-07T16:34:55.754Z,10.55
2023-03-07T16:37:57.320Z,11.05
2023-03-07T16:41:00.956Z,9.82
2023-03-07T16:44:02.630Z,10.18
2023-03-07T16:47:22.178Z,9.40
2023-03-07T16:50:29.559Z,9.90
2023-03-07T16:53:31.377Z,8.95
2023-03-07T16:56:36.891Z,9.95
2023-03-07T16:59:42.035Z,10.60
2023-03-07T17:02:45.244Z,9.73
2023-03-07T17:05:46.825Z,9.80
2023-03-07T17:08:50.758Z,10.05
2023-03-07T17:11:52.724Z,9.82
2023-03-07T17:14:56.548Z,9.82
2023-03-07T17:17:59.480Z,10.57
2023-03-07T17:21:00.942Z,10.05
2023-03-07T17:24:02.437Z,9.27
2023-03-07T17:27:04.029Z,10.50
2023-03-07T17:30:05.953Z,10.52
2023-03-07T17:33:10.463Z,11.45
2023-03-07T17:36:12.170Z,10.60
2023-03-07T17:39:13.803Z,11.50
2023-03-07T17:42:15.282Z,10.18
2023-03-07T17:45:17.495Z,11.20
2023-03-07T17:48:18.981Z,10.13
2023-03-07T17:51:20.487Z,9.52
2023-03-07T17:54:21.984Z,9.93
2023-03-07T17:57:23.569Z,10.02
2023-03-07T18:00:25.645Z,10.38
2023-03-07T18:03:27.269Z,11.40
2023-03-07T18:10:51.961Z,9.85
2023-03-07T18:13:53.717Z,9.65
2023-03-07T18:16:55.209Z,10.15
2023-03-07T18:19:56.791Z,10.00
2023-03-07T18:22:58.252Z,9.60
2023-03-07T18:26:05.498Z,9.38
2023-03-07T18:29:07.266Z,9.57
2023-03-07T18:32:08.776Z,10.73
2023-03-07T18:35:11.367Z,9.77
2023-03-07T18:38:12.857Z,10.02
2023-03-07T18:41:16.903Z,11.90
2023-03-07T18:44:19.596Z,9.55
2023-03-07T18:47:21.179Z,10.45
2023-03-07T18:50:22.895Z,10.73
2023-03-07T18:53:24.709Z,11.73
2023-03-07T18:56:27.377Z,11.60
2023-03-07T18:59:28.849Z,9.45
2023-03-07T19:02:30.412Z,8.60
2023-03-07T19:05:32.144Z,10.45
2023-03-07T19:08:34.491Z,9.40
2023-03-07T19:11:36.233Z,9.23
2023-03-07T19:14:38.388Z,11.63
2023-03-07T19:17:41.517Z,9.82
2023-03-07T19:20:43.015Z,10.68
2023-03-07T19:23:45.152Z,10.65
2023-03-07T19:26:48.773Z,11.50
2023-03-07T19:29:50.324Z,11.00
2023-03-07T19:32:51.930Z,10.80
2023-03-07T19:36:11.641Z,11.02
2023-03-07T19:39:20.369Z,11.20
2023-03-07T19:42:24.564Z,10.98
2023-03-07T19:45:26.970Z,11.57
2023-03-07T19:48:29.286Z,11.43
2023-03-07T19:51:30.760Z,12.15
2023-03-07T19:54:32.266Z,11.80
2023-03-07T19:57:36.324Z,11.30
2023-03-07T20:00:39.690Z,12.20
2023-03-07T20:03:41.143Z,10.53
2023-03-07T20:06:43.857Z,9.90
2023-03-07T20:09:45.663Z,11.88
2023-03-07T20:12:47.664Z,11.35
2023-03-07T20:15:52.600Z,9.98
2023-03-07T20:18:55.662Z,11.80
2023-03-07T20:21:57.167Z,11.65
2023-03-07T20:24:58.620Z,12.05
2023-03-07T20:28:00.217Z,11.60
2023-03-07T20:31:04.111Z,11.98
2023-03-07T20:34:06.479Z,13.48
2023-03-07T20:37:08.039Z,13.50
2023-03-07T20:40:10.174Z,13.38
2023-03-07T20:43:11.660Z,13.52
2023-03-07T20:46:14.738Z,12.95
2023-03-07T20:49:16.359Z,13.27
2023-03-07T20:52:17.915Z,12.98
2023-03-07T20:55:20.122Z,13.25
2023-03-07T20:58:22.107Z,14.55
2023-03-07T21:01:25.876Z,13.90
2023-03-07T21:04:27.680Z,13.52
2023-03-07T21:07:29.302Z,13.10
2023-03-07T21:10:30.829Z,12.93
2023-03-07T21:13:34.914Z,13.98
2023-03-07T21:19:38.175Z,13.32
2023-03-07T21:22:40.608Z,12.13
2023-03-07T21:25:42.270Z,13.30
2023-03-07T21:28:44.153Z,13.30
2023-03-07T21:31:45.809Z,12.45
2023-03-07T21:34:47.282Z,13.85
2023-03-07T21:37:48.778Z,14.20
2023-03-07T21:40:50.771Z,13.80
2023-03-07T21:43:56.306Z,15.85
2023-03-07T21:46:57.881Z,10.88
2023-03-07T21:49:59.346Z,13.18
2023-03-07T21:53:00.806Z,12.88
2023-03-07T21:56:08.323Z,13.65
2023-03-07T21:59:10.046Z,13.68
2023-03-07T22:02:11.920Z,14.15
2023-03-07T22:05:13.396Z,13.32
2023-03-07T22:08:20.237Z,13.43
2023-03-07T22:11:22.149Z,13.85
2023-03-07T22:14:23.675Z,13.68
2023-03-07T22:17:26.232Z,12.85
2023-03-07T22:20:27.726Z,13.63
2023-03-07T22:23:29.172Z,14.27
2023-03-07T22:26:31.971Z,14.70
2023-03-07T22:29:33.582Z,13.27
2023-03-07T22:32:35.244Z,13.00
2023-03-07T22:35:36.917Z,13.40
2023-03-07T22:38:38.940Z,12.68
2023-03-07T22:41:40.575Z,12.10
2023-03-07T22:44:42.054Z,13.05
2023-03-07T22:47:43.541Z,11.65
2023-03-07T22:50:44.991Z,11.55
2023-03-07T22:53:46.891Z,10.90
2023-03-07T22:56:48.569Z,12.90
2023-03-07T22:59:50.148Z,11.43
2023-03-07T23:02:51.745Z,11.15
2023-03-07T23:05:58.676Z,11.13
2023-03-07T23:09:01.949Z,10.93
2023-03-07T23:12:03.543Z,11.17
2023-03-07T23:15:05.455Z,10.90
2023-03-07T23:18:06.937Z,11.35
2023-03-07T23:21:11.166Z,10.35
2023-03-07T23:27:14.106Z,11.07
2023-03-07T23:30:17.418Z,11.48
2023-03-07T23:33:18.915Z,11.03
2023-03-07T23:36:20.377Z,11.63
2023-03-07T23:39:21.843Z,11.18
2023-03-07T23:42:23.405Z,12.35
2023-03-07T23:45:25.549Z,11.40
2023-03-07T23:48:26.978Z,11.50
2023-03-07T23:51:28.464Z,12.63
2023-03-07T23:54:29.922Z,13.00
2023-03-07T23:57:31.436Z,13.38
